sensor_id;sensor_type;location;lat;lon;timestamp;P1;durP1;ratioP1;P2;durP2;ratioP2
43664;SDS011;29263;48.172;11.484;2023-08-06T00:01:43;5.60;;;3.70;;
43664;SDS011;29263;48.172;11.484;2023-08-06T00:04:09;9.35;;;3.80;;
43664;SDS011;29263;48.172;11.484;2023-08-06T00:06:35;4.53;;;3.15;;
43664;SDS011;29263;48.172;11.484;2023-08-06T00:09:04;3.67;;;3.07;;
43664;SDS011;29263;48.172;11.484;2023-08-06T00:11:37;3.60;;;3.22;;
43664;SDS011;29263;48.172;11.484;2023-08-06T00:14:03;3.75;;;3.13;;
43664;SDS011;29263;48.172;11.484;2023-08-06T00:16:31;4.20;;;3.17;;
43664;SDS011;29263;48.172;11.484;2023-08-06T00:18:57;4.72;;;3.35;;
43664;SDS011;29263;48.172;11.484;2023-08-06T00:21:26;3.37;;;3.07;;
43664;SDS011;29263;48.172;11.484;2023-08-06T00:23:54;4.50;;;3.20;;
43664;SDS011;29263;48.172;11.484;2023-08-06T00:26:20;3.47;;;2.70;;
43664;SDS011;29263;48.172;11.484;2023-08-06T00:28:46;6.57;;;2.97;;
43664;SDS011;29263;48.172;11.484;2023-08-06T00:31:14;3.22;;;2.30;;
43664;SDS011;29263;48.172;11.484;2023-08-06T00:33:43;3.42;;;2.45;;
43664;SDS011;29263;48.172;11.484;2023-08-06T00:36:08;3.13;;;2.20;;
43664;SDS011;29263;48.172;11.484;2023-08-06T00:38:34;2.40;;;2.20;;
43664;SDS011;29263;48.172;11.484;2023-08-06T00:41:00;2.28;;;2.03;;
43664;SDS011;29263;48.172;11.484;2023-08-06T00:43:26;3.08;;;2.20;;
43664;SDS011;29263;48.172;11.484;2023-08-06T00:46:31;4.53;;;2.50;;
43664;SDS011;29263;48.172;11.484;2023-08-06T00:48:58;2.53;;;2.28;;
43664;SDS011;29263;48.172;11.484;2023-08-06T00:51:28;4.00;;;2.42;;
43664;SDS011;29263;48.172;11.484;2023-08-06T00:53:54;3.28;;;2.40;;
43664;SDS011;29263;48.172;11.484;2023-08-06T00:56:20;6.15;;;2.50;;
43664;SDS011;29263;48.172;11.484;2023-08-06T00:58:49;2.90;;;2.40;;
43664;SDS011;29263;48.172;11.484;2023-08-06T01:01:54;4.40;;;2.47;;
43664;SDS011;29263;48.172;11.484;2023-08-06T01:04:20;3.08;;;2.33;;
43664;SDS011;29263;48.172;11.484;2023-08-06T01:15:41;4.30;;;2.35;;
43664;SDS011;29263;48.172;11.484;2023-08-06T01:18:11;4.35;;;2.38;;
43664;SDS011;29263;48.172;11.484;2023-08-06T01:20:37;3.22;;;2.50;;
43664;SDS011;29263;48.172;11.484;2023-08-06T01:23:03;2.75;;;2.35;;
43664;SDS011;29263;48.172;11.484;2023-08-06T01:31:43;4.25;;;2.38;;
43664;SDS011;29263;48.172;11.484;2023-08-06T01:34:17;5.43;;;2.70;;
43664;SDS011;29263;48.172;11.484;2023-08-06T01:36:46;4.07;;;2.83;;
43664;SDS011;29263;48.172;11.484;2023-08-06T01:39:12;4.47;;;2.35;;
43664;SDS011;29263;48.172;11.484;2023-08-06T01:41:37;2.97;;;2.50;;
43664;SDS011;29263;48.172;11.484;2023-08-06T01:44:04;9.88;;;3.47;;
43664;SDS011;29263;48.172;11.484;2023-08-06T01:46:42;7.93;;;3.58;;
43664;SDS011;29263;48.172;11.484;2023-08-06T01:49:10;5.35;;;3.03;;
43664;SDS011;29263;48.172;11.484;2023-08-06T01:51:36;6.32;;;3.08;;
43664;SDS011;29263;48.172;11.484;2023-08-06T01:54:02;4.38;;;3.10;;
43664;SDS011;29263;48.172;11.484;2023-08-06T01:56:28;4.03;;;3.20;;
43664;SDS011;29263;48.172;11.484;2023-08-06T01:58:54;3.95;;;3.10;;
43664;SDS011;29263;48.172;11.484;2023-08-06T02:01:19;8.55;;;3.20;;
43664;SDS011;29263;48.172;11.484;2023-08-06T02:03:45;4.43;;;3.13;;
43664;SDS011;29263;48.172;11.484;2023-08-06T02:06:11;5.43;;;2.97;;
43664;SDS011;29263;48.172;11.484;2023-08-06T02:08:36;3.97;;;3.10;;
43664;SDS011;29263;48.172;11.484;2023-08-06T02:11:02;4.35;;;2.95;;
43664;SDS011;29263;48.172;11.484;2023-08-06T02:13:28;5.60;;;2.90;;
43664;SDS011;29263;48.172;11.484;2023-08-06T02:15:53;3.90;;;3.20;;
43664;SDS011;29263;48.172;11.484;2023-08-06T02:18:19;5.63;;;3.00;;
43664;SDS011;29263;48.172;11.484;2023-08-06T02:20:54;3.03;;;2.35;;
43664;SDS011;29263;48.172;11.484;2023-08-06T02:23:21;3.03;;;2.58;;
43664;SDS011;29263;48.172;11.484;2023-08-06T02:25:47;3.00;;;2.67;;
43664;SDS011;29263;48.172;11.484;2023-08-06T02:28:12;3.33;;;2.38;;
43664;SDS011;29263;48.172;11.484;2023-08-06T02:30:38;4.22;;;2.38;;
43664;SDS011;29263;48.172;11.484;2023-08-06T02:33:04;3.50;;;2.60;;
43664;SDS011;29263;48.172;11.484;2023-08-06T02:35:29;3.30;;;2.30;;
43664;SDS011;29263;48.172;11.484;2023-08-06T02:37:55;2.28;;;2.03;;
43664;SDS011;29263;48.172;11.484;2023-08-06T02:40:21;3.20;;;2.47;;
43664;SDS011;29263;48.172;11.484;2023-08-06T02:42:46;2.75;;;1.83;;
43664;SDS011;29263;48.172;11.484;2023-08-06T02:45:12;2.75;;;2.30;;
43664;SDS011;29263;48.172;11.484;2023-08-06T02:47:37;3.78;;;2.35;;
43664;SDS011;29263;48.172;11.484;2023-08-06T02:50:03;4.45;;;2.60;;
43664;SDS011;29263;48.172;11.484;2023-08-06T02:52:29;6.45;;;2.08;;
43664;SDS011;29263;48.172;11.484;2023-08-06T02:54:55;3.47;;;2.13;;
43664;SDS011;29263;48.172;11.484;2023-08-06T02:57:21;2.80;;;2.55;;
43664;SDS011;29263;48.172;11.484;2023-08-06T02:59:46;2.85;;;2.10;;
43664;SDS011;29263;48.172;11.484;2023-08-06T03:02:12;3.42;;;1.90;;
43664;SDS011;29263;48.172;11.484;2023-08-06T03:04:38;2.10;;;1.90;;
43664;SDS011;29263;48.172;11.484;2023-08-06T03:07:04;2.28;;;1.90;;
43664;SDS011;29263;48.172;11.484;2023-08-06T03:09:29;2.65;;;1.80;;
43664;SDS011;29263;48.172;11.484;2023-08-06T03:11:55;2.75;;;2.03;;
43664;SDS011;29263;48.172;11.484;2023-08-06T03:14:20;2.60;;;1.98;;
43664;SDS011;29263;48.172;11.484;2023-08-06T03:16:46;2.00;;;1.80;;
43664;SDS011;29263;48.172;11.484;2023-08-06T03:19:12;3.75;;;2.00;;
43664;SDS011;29263;48.172;11.484;2023-08-06T03:21:37;1.88;;;1.77;;
43664;SDS011;29263;48.172;11.484;2023-08-06T03:24:03;1.95;;;1.63;;
43664;SDS011;29263;48.172;11.484;2023-08-06T03:26:28;3.67;;;1.77;;
43664;SDS011;29263;48.172;11.484;2023-08-06T03:28:54;3.20;;;1.65;;
43664;SDS011;29263;48.172;11.484;2023-08-06T03:31:20;2.75;;;1.88;;
43664;SDS011;29263;48.172;11.484;2023-08-06T03:33:45;2.35;;;2.00;;
43664;SDS011;29263;48.172;11.484;2023-08-06T03:36:11;2.30;;;2.10;;
43664;SDS011;29263;48.172;11.484;2023-08-06T03:38:37;2.70;;;1.75;;
43664;SDS011;29263;48.172;11.484;2023-08-06T03:41:02;2.58;;;1.80;;
43664;SDS011;29263;48.172;11.484;2023-08-06T03:43:28;2.60;;;1.90;;
43664;SDS011;29263;48.172;11.484;2023-08-06T03:45:53;2.15;;;1.80;;
43664;SDS011;29263;48.172;11.484;2023-08-06T03:48:19;2.85;;;1.85;;
43664;SDS011;29263;48.172;11.484;2023-08-06T03:50:45;3.90;;;1.95;;
43664;SDS011;29263;48.172;11.484;2023-08-06T03:53:11;2.95;;;2.20;;
43664;SDS011;29263;48.172;11.484;2023-08-06T03:55:36;3.10;;;2.10;;
43664;SDS011;29263;48.172;11.484;2023-08-06T03:58:02;2.90;;;1.95;;
43664;SDS011;29263;48.172;11.484;2023-08-06T04:00:27;2.85;;;1.70;;
43664;SDS011;29263;48.172;11.484;2023-08-06T04:02:53;3.33;;;1.60;;
43664;SDS011;29263;48.172;11.484;2023-08-06T04:05:18;2.67;;;1.80;;
43664;SDS011;29263;48.172;11.484;2023-08-06T04:07:44;2.30;;;2.00;;
43664;SDS011;29263;48.172;11.484;2023-08-06T04:10:10;2.28;;;1.60;;
43664;SDS011;29263;48.172;11.484;2023-08-06T04:12:36;3.10;;;1.58;;
43664;SDS011;29263;48.172;11.484;2023-08-06T04:15:04;2.35;;;1.45;;
43664;SDS011;29263;48.172;11.484;2023-08-06T04:17:30;2.30;;;1.80;;
43664;SDS011;29263;48.172;11.484;2023-08-06T04:19:55;1.60;;;1.45;;
43664;SDS011;29263;48.172;11.484;2023-08-06T04:22:23;4.07;;;1.50;;
43664;SDS011;29263;48.172;11.484;2023-08-06T04:24:49;2.88;;;1.45;;
43664;SDS011;29263;48.172;11.484;2023-08-06T04:27:15;2.58;;;1.67;;
43664;SDS011;29263;48.172;11.484;2023-08-06T04:29:41;3.72;;;2.25;;
43664;SDS011;29263;48.172;11.484;2023-08-06T04:32:08;2.25;;;1.80;;
43664;SDS011;29263;48.172;11.484;2023-08-06T04:34:35;3.10;;;1.50;;
43664;SDS011;29263;48.172;11.484;2023-08-06T04:37:01;1.92;;;1.50;;
43664;SDS011;29263;48.172;11.484;2023-08-06T04:39:28;3.38;;;1.40;;
43664;SDS011;29263;48.172;11.484;2023-08-06T04:41:55;6.80;;;1.70;;
43664;SDS011;29263;48.172;11.484;2023-08-06T04:46:49;5.57;;;1.30;;
43664;SDS011;29263;48.172;11.484;2023-08-06T04:49:15;3.25;;;1.45;;
43664;SDS011;29263;48.172;11.484;2023-08-06T04:51:40;4.05;;;1.60;;
43664;SDS011;29263;48.172;11.484;2023-08-06T04:54:06;3.70;;;1.45;;
43664;SDS011;29263;48.172;11.484;2023-08-06T04:56:32;1.85;;;1.67;;
43664;SDS011;29263;48.172;11.484;2023-08-06T04:58:58;2.75;;;1.70;;
43664;SDS011;29263;48.172;11.484;2023-08-06T05:01:24;5.28;;;1.80;;
43664;SDS011;29263;48.172;11.484;2023-08-06T05:03:50;1.58;;;1.48;;
43664;SDS011;29263;48.172;11.484;2023-08-06T05:06:16;1.85;;;1.52;;
43664;SDS011;29263;48.172;11.484;2023-08-06T05:08:41;2.08;;;1.70;;
43664;SDS011;29263;48.172;11.484;2023-08-06T05:11:07;2.38;;;1.45;;
43664;SDS011;29263;48.172;11.484;2023-08-06T05:13:32;3.38;;;2.05;;
43664;SDS011;29263;48.172;11.484;2023-08-06T05:15:58;6.90;;;3.17;;
43664;SDS011;29263;48.172;11.484;2023-08-06T05:18:24;5.28;;;3.60;;
43664;SDS011;29263;48.172;11.484;2023-08-06T05:20:49;10.00;;;5.40;;
43664;SDS011;29263;48.172;11.484;2023-08-06T05:23:15;4.38;;;3.17;;
43664;SDS011;29263;48.172;11.484;2023-08-06T05:25:41;5.55;;;3.03;;
43664;SDS011;29263;48.172;11.484;2023-08-06T05:28:07;3.63;;;2.40;;
43664;SDS011;29263;48.172;11.484;2023-08-06T05:30:33;4.68;;;1.92;;
43664;SDS011;29263;48.172;11.484;2023-08-06T05:32:59;2.63;;;2.10;;
43664;SDS011;29263;48.172;11.484;2023-08-06T05:35:24;3.40;;;1.70;;
43664;SDS011;29263;48.172;11.484;2023-08-06T05:37:50;3.08;;;1.52;;
43664;SDS011;29263;48.172;11.484;2023-08-06T05:40:15;2.28;;;1.80;;
43664;SDS011;29263;48.172;11.484;2023-08-06T05:42:41;2.17;;;1.70;;
43664;SDS011;29263;48.172;11.484;2023-08-06T05:45:07;2.03;;;1.52;;
43664;SDS011;29263;48.172;11.484;2023-08-06T05:47:33;2.30;;;1.60;;
43664;SDS011;29263;48.172;11.484;2023-08-06T05:49:59;2.85;;;1.80;;
43664;SDS011;29263;48.172;11.484;2023-08-06T05:52:24;2.25;;;1.70;;
43664;SDS011;29263;48.172;11.484;2023-08-06T05:54:50;3.58;;;1.98;;
43664;SDS011;29263;48.172;11.484;2023-08-06T05:57:16;1.70;;;1.50;;
43664;SDS011;29263;48.172;11.484;2023-08-06T05:59:42;2.30;;;1.58;;
43664;SDS011;29263;48.172;11.484;2023-08-06T06:02:08;1.75;;;1.50;;
43664;SDS011;29263;48.172;11.484;2023-08-06T06:04:34;1.55;;;1.40;;
43664;SDS011;29263;48.172;11.484;2023-08-06T06:07:00;1.95;;;1.40;;
43664;SDS011;29263;48.172;11.484;2023-08-06T06:09:25;3.03;;;1.60;;
43664;SDS011;29263;48.172;11.484;2023-08-06T06:11:51;6.40;;;1.60;;
43664;SDS011;29263;48.172;11.484;2023-08-06T06:14:17;2.30;;;1.40;;
43664;SDS011;29263;48.172;11.484;2023-08-06T06:16:43;2.38;;;1.63;;
43664;SDS011;29263;48.172;11.484;2023-08-06T06:19:12;2.63;;;1.58;;
43664;SDS011;29263;48.172;11.484;2023-08-06T06:21:44;3.00;;;1.35;;
43664;SDS011;29263;48.172;11.484;2023-08-06T06:27:33;1.52;;;1.20;;
43664;SDS011;29263;48.172;11.484;2023-08-06T06:29:59;3.50;;;1.65;;
43664;SDS011;29263;48.172;11.484;2023-08-06T06:32:25;2.45;;;1.35;;
43664;SDS011;29263;48.172;11.484;2023-08-06T06:34:50;2.65;;;1.00;;
43664;SDS011;29263;48.172;11.484;2023-08-06T06:37:16;1.48;;;1.02;;
43664;SDS011;29263;48.172;11.484;2023-08-06T06:39:45;1.17;;;0.95;;
43664;SDS011;29263;48.172;11.484;2023-08-06T06:42:11;2.90;;;0.80;;
43664;SDS011;29263;48.172;11.484;2023-08-06T06:44:37;0.88;;;0.77;;
43664;SDS011;29263;48.172;11.484;2023-08-06T06:47:40;1.92;;;1.00;;
43664;SDS011;29263;48.172;11.484;2023-08-06T06:50:06;1.05;;;0.90;;
43664;SDS011;29263;48.172;11.484;2023-08-06T06:52:35;1.25;;;0.80;;
43664;SDS011;29263;48.172;11.484;2023-08-06T06:55:01;2.72;;;1.13;;
43664;SDS011;29263;48.172;11.484;2023-08-06T06:57:27;1.08;;;0.80;;
43664;SDS011;29263;48.172;11.484;2023-08-06T06:59:52;1.67;;;0.93;;
43664;SDS011;29263;48.172;11.484;2023-08-06T07:02:21;0.98;;;0.63;;
43664;SDS011;29263;48.172;11.484;2023-08-06T07:04:51;3.20;;;0.57;;
43664;SDS011;29263;48.172;11.484;2023-08-06T07:07:20;2.75;;;0.60;;
43664;SDS011;29263;48.172;11.484;2023-08-06T07:09:49;3.13;;;0.77;;
43664;SDS011;29263;48.172;11.484;2023-08-06T07:12:17;0.70;;;0.52;;
43664;SDS011;29263;48.172;11.484;2023-08-06T07:14:43;1.38;;;0.40;;
43664;SDS011;29263;48.172;11.484;2023-08-06T07:17:09;0.82;;;0.47;;
43664;SDS011;29263;48.172;11.484;2023-08-06T07:19:35;2.08;;;0.60;;
43664;SDS011;29263;48.172;11.484;2023-08-06T07:25:09;0.65;;;0.57;;
43664;SDS011;29263;48.172;11.484;2023-08-06T07:27:38;0.75;;;0.52;;
43664;SDS011;29263;48.172;11.484;2023-08-06T07:30:07;1.80;;;0.60;;
43664;SDS011;29263;48.172;11.484;2023-08-06T07:32:33;0.98;;;0.52;;
43664;SDS011;29263;48.172;11.484;2023-08-06T07:34:59;1.48;;;0.35;;
43664;SDS011;29263;48.172;11.484;2023-08-06T07:37:28;0.60;;;0.43;;
43664;SDS011;29263;48.172;11.484;2023-08-06T07:39:57;1.42;;;0.63;;
43664;SDS011;29263;48.172;11.484;2023-08-06T07:42:38;2.10;;;0.40;;
43664;SDS011;29263;48.172;11.484;2023-08-06T07:45:08;0.45;;;0.35;;
43664;SDS011;29263;48.172;11.484;2023-08-06T07:47:37;2.47;;;0.80;;
43664;SDS011;29263;48.172;11.484;2023-08-06T07:50:15;2.50;;;0.73;;
43664;SDS011;29263;48.172;11.484;2023-08-06T07:52:40;0.30;;;0.20;;
43664;SDS011;29263;48.172;11.484;2023-08-06T07:55:06;2.25;;;0.47;;
43664;SDS011;29263;48.172;11.484;2023-08-06T07:57:32;0.80;;;0.40;;
43664;SDS011;29263;48.172;11.484;2023-08-06T08:00:03;2.05;;;0.55;;
43664;SDS011;29263;48.172;11.484;2023-08-06T08:02:29;4.20;;;1.50;;
43664;SDS011;29263;48.172;11.484;2023-08-06T08:04:58;2.67;;;1.05;;
43664;SDS011;29263;48.172;11.484;2023-08-06T08:07:29;3.80;;;1.13;;
43664;SDS011;29263;48.172;11.484;2023-08-06T08:09:58;3.73;;;1.47;;
43664;SDS011;29263;48.172;11.484;2023-08-06T08:12:24;2.00;;;0.82;;
43664;SDS011;29263;48.172;11.484;2023-08-06T08:14:50;1.42;;;0.57;;
43664;SDS011;29263;48.172;11.484;2023-08-06T08:17:16;1.08;;;0.50;;
43664;SDS011;29263;48.172;11.484;2023-08-06T08:19:41;6.05;;;0.60;;
43664;SDS011;29263;48.172;11.484;2023-08-06T08:22:07;0.45;;;0.30;;
43664;SDS011;29263;48.172;11.484;2023-08-06T08:24:33;1.08;;;0.38;;
43664;SDS011;29263;48.172;11.484;2023-08-06T08:26:59;1.23;;;0.40;;
43664;SDS011;29263;48.172;11.484;2023-08-06T08:29:25;2.15;;;0.30;;
43664;SDS011;29263;48.172;11.484;2023-08-06T08:31:50;3.35;;;0.40;;
43664;SDS011;29263;48.172;11.484;2023-08-06T08:34:16;0.50;;;0.30;;
43664;SDS011;29263;48.172;11.484;2023-08-06T08:37:16;1.15;;;0.20;;
43664;SDS011;29263;48.172;11.484;2023-08-06T08:40:21;0.40;;;0.13;;
43664;SDS011;29263;48.172;11.484;2023-08-06T08:43:00;1.50;;;0.40;;
43664;SDS011;29263;48.172;11.484;2023-08-06T08:45:28;0.75;;;0.47;;
43664;SDS011;29263;48.172;11.484;2023-08-06T08:47:54;1.02;;;0.20;;
43664;SDS011;29263;48.172;11.484;2023-08-06T08:50:20;0.32;;;0.20;;
43664;SDS011;29263;48.172;11.484;2023-08-06T08:52:47;0.65;;;0.10;;
43664;SDS011;29263;48.172;11.484;2023-08-06T08:55:15;0.30;;;0.17;;
43664;SDS011;29263;48.172;11.484;2023-08-06T08:57:42;0.28;;;0.10;;
43664;SDS011;29263;48.172;11.484;2023-08-06T09:00:54;0.80;;;0.20;;
43664;SDS011;29263;48.172;11.484;2023-08-06T09:03:08;0.57;;;0.10;;
43664;SDS011;29263;48.172;11.484;2023-08-06T09:05:35;0.82;;;0.20;;
43664;SDS011;29263;48.172;11.484;2023-08-06T09:08:12;0.10;;;0.08;;
43664;SDS011;29263;48.172;11.484;2023-08-06T09:10:43;0.90;;;0.25;;
43664;SDS011;29263;48.172;11.484;2023-08-06T09:13:10;0.77;;;0.20;;
43664;SDS011;29263;48.172;11.484;2023-08-06T09:15:37;1.15;;;0.22;;
43664;SDS011;29263;48.172;11.484;2023-08-06T09:18:09;0.17;;;0.17;;
43664;SDS011;29263;48.172;11.484;2023-08-06T09:20:52;0.38;;;0.10;;
43664;SDS011;29263;48.172;11.484;2023-08-06T09:23:22;0.55;;;0.30;;
43664;SDS011;29263;48.172;11.484;2023-08-06T09:25:54;0.82;;;0.20;;
43664;SDS011;29263;48.172;11.484;2023-08-06T09:28:39;0.73;;;0.20;;
43664;SDS011;29263;48.172;11.484;2023-08-06T09:31:07;0.55;;;0.40;;
43664;SDS011;29263;48.172;11.484;2023-08-06T09:33:35;0.32;;;0.13;;
43664;SDS011;29263;48.172;11.484;2023-08-06T09:36:08;3.15;;;0.10;;
43664;SDS011;29263;48.172;11.484;2023-08-06T09:38:43;0.20;;;0.10;;
43664;SDS011;29263;48.172;11.484;2023-08-06T09:41:09;0.70;;;0.10;;
43664;SDS011;29263;48.172;11.484;2023-08-06T09:43:43;0.35;;;0.20;;
43664;SDS011;29263;48.172;11.484;2023-08-06T09:46:18;0.43;;;0.00;;
43664;SDS011;29263;48.172;11.484;2023-08-06T09:48:44;0.28;;;0.08;;
43664;SDS011;29263;48.172;11.484;2023-08-06T09:51:15;0.30;;;0.00;;
43664;SDS011;29263;48.172;11.484;2023-08-06T09:53:41;0.28;;;0.10;;
43664;SDS011;29263;48.172;11.484;2023-08-06T09:56:08;0.20;;;0.00;;
43664;SDS011;29263;48.172;11.484;2023-08-06T09:58:35;1.10;;;0.10;;
43664;SDS011;29263;48.172;11.484;2023-08-06T10:01:03;1.38;;;0.10;;
43664;SDS011;29263;48.172;11.484;2023-08-06T10:03:29;0.93;;;0.10;;
43664;SDS011;29263;48.172;11.484;2023-08-06T10:09:18;0.63;;;0.05;;
43664;SDS011;29263;48.172;11.484;2023-08-06T10:11:44;0.50;;;0.20;;
43664;SDS011;29263;48.172;11.484;2023-08-06T10:14:21;0.03;;;0.00;;
43664;SDS011;29263;48.172;11.484;2023-08-06T10:16:57;0.15;;;0.00;;
43664;SDS011;29263;48.172;11.484;2023-08-06T10:19:24;0.40;;;0.13;;
43664;SDS011;29263;48.172;11.484;2023-08-06T10:22:11;4.80;;;0.13;;
43664;SDS011;29263;48.172;11.484;2023-08-06T10:24:57;0.00;;;0.00;;
43664;SDS011;29263;48.172;11.484;2023-08-06T10:27:35;0.40;;;0.10;;
43664;SDS011;29263;48.172;11.484;2023-08-06T10:30:29;1.25;;;0.10;;
43664;SDS011;29263;48.172;11.484;2023-08-06T10:33:00;0.30;;;0.00;;
43664;SDS011;29263;48.172;11.484;2023-08-06T10:41:22;2.83;;;0.10;;
43664;SDS011;29263;48.172;11.484;2023-08-06T10:43:52;0.90;;;0.10;;
43664;SDS011;29263;48.172;11.484;2023-08-06T10:46:33;0.00;;;0.00;;
43664;SDS011;29263;48.172;11.484;2023-08-06T10:48:59;0.90;;;0.10;;
43664;SDS011;29263;48.172;11.484;2023-08-06T10:51:25;2.53;;;0.95;;
43664;SDS011;29263;48.172;11.484;2023-08-06T10:53:54;2.35;;;0.10;;
43664;SDS011;29263;48.172;11.484;2023-08-06T10:56:24;1.33;;;0.10;;
43664;SDS011;29263;48.172;11.484;2023-08-06T10:58:55;0.10;;;0.10;;
43664;SDS011;29263;48.172;11.484;2023-08-06T11:01:28;1.95;;;0.00;;
43664;SDS011;29263;48.172;11.484;2023-08-06T11:04:02;0.13;;;0.00;;
43664;SDS011;29263;48.172;11.484;2023-08-06T11:06:30;0.25;;;0.10;;
43664;SDS011;29263;48.172;11.484;2023-08-06T11:08:56;0.43;;;0.10;;
43664;SDS011;29263;48.172;11.484;2023-08-06T11:11:22;1.30;;;0.10;;
43664;SDS011;29263;48.172;11.484;2023-08-06T11:13:49;0.00;;;0.00;;
43664;SDS011;29263;48.172;11.484;2023-08-06T11:16:17;0.00;;;0.00;;
43664;SDS011;29263;48.172;11.484;2023-08-06T11:18:52;0.00;;;0.00;;
43664;SDS011;29263;48.172;11.484;2023-08-06T11:21:21;0.20;;;0.00;;
43664;SDS011;29263;48.172;11.484;2023-08-06T11:23:49;0.00;;;0.00;;
43664;SDS011;29263;48.172;11.484;2023-08-06T11:26:19;0.03;;;0.00;;
43664;SDS011;29263;48.172;11.484;2023-08-06T11:28:45;0.30;;;0.00;;
43664;SDS011;29263;48.172;11.484;2023-08-06T11:31:25;0.20;;;0.00;;
43664;SDS011;29263;48.172;11.484;2023-08-06T11:33:52;0.10;;;0.00;;
43664;SDS011;29263;48.172;11.484;2023-08-06T11:36:28;0.25;;;0.10;;
43664;SDS011;29263;48.172;11.484;2023-08-06T11:38:58;2.45;;;0.08;;
43664;SDS011;29263;48.172;11.484;2023-08-06T11:41:32;0.47;;;0.03;;
43664;SDS011;29263;48.172;11.484;2023-08-06T11:43:58;0.50;;;0.17;;
43664;SDS011;29263;48.172;11.484;2023-08-06T11:46:56;0.10;;;0.10;;
43664;SDS011;29263;48.172;11.484;2023-08-06T11:49:46;0.57;;;0.20;;
43664;SDS011;29263;48.172;11.484;2023-08-06T11:52:21;0.28;;;0.00;;
43664;SDS011;29263;48.172;11.484;2023-08-06T11:57:29;1.25;;;0.00;;
43664;SDS011;29263;48.172;11.484;2023-08-06T11:59:58;0.03;;;0.00;;
43664;SDS011;29263;48.172;11.484;2023-08-06T12:02:34;0.10;;;0.10;;
43664;SDS011;29263;48.172;11.484;2023-08-06T12:05:03;0.20;;;0.00;;
43664;SDS011;29263;48.172;11.484;2023-08-06T12:07:39;0.28;;;0.00;;
43664;SDS011;29263;48.172;11.484;2023-08-06T12:10:12;1.00;;;0.00;;
43664;SDS011;29263;48.172;11.484;2023-08-06T12:12:39;0.55;;;0.00;;
43664;SDS011;29263;48.172;11.484;2023-08-06T12:15:05;0.10;;;0.00;;
43664;SDS011;29263;48.172;11.484;2023-08-06T12:17:32;0.03;;;0.00;;
43664;SDS011;29263;48.172;11.484;2023-08-06T12:19:58;1.15;;;0.10;;
43664;SDS011;29263;48.172;11.484;2023-08-06T12:22:24;0.00;;;0.00;;
43664;SDS011;29263;48.172;11.484;2023-08-06T12:24:50;0.98;;;0.10;;
43664;SDS011;29263;48.172;11.484;2023-08-06T12:27:16;0.08;;;0.00;;
43664;SDS011;29263;48.172;11.484;2023-08-06T12:29:42;0.00;;;0.00;;
43664;SDS011;29263;48.172;11.484;2023-08-06T12:32:09;0.00;;;0.00;;
43664;SDS011;29263;48.172;11.484;2023-08-06T12:34:37;0.00;;;0.00;;
43664;SDS011;29263;48.172;11.484;2023-08-06T12:37:03;0.10;;;0.00;;
43664;SDS011;29263;48.172;11.484;2023-08-06T12:39:29;1.35;;;0.10;;
43664;SDS011;29263;48.172;11.484;2023-08-06T12:41:56;0.22;;;0.10;;
43664;SDS011;29263;48.172;11.484;2023-08-06T12:44:23;0.20;;;0.10;;
43664;SDS011;29263;48.172;11.484;2023-08-06T12:46:50;0.57;;;0.10;;
43664;SDS011;29263;48.172;11.484;2023-08-06T12:49:21;1.55;;;0.20;;
43664;SDS011;29263;48.172;11.484;2023-08-06T12:51:56;0.50;;;0.20;;
43664;SDS011;29263;48.172;11.484;2023-08-06T12:54:24;0.22;;;0.10;;
43664;SDS011;29263;48.172;11.484;2023-08-06T12:56:51;0.20;;;0.10;;
43664;SDS011;29263;48.172;11.484;2023-08-06T12:59:25;0.08;;;0.03;;
43664;SDS011;29263;48.172;11.484;2023-08-06T13:01:54;0.50;;;0.10;;
43664;SDS011;29263;48.172;11.484;2023-08-06T13:04:23;0.10;;;0.03;;
43664;SDS011;29263;48.172;11.484;2023-08-06T13:06:55;0.55;;;0.00;;
43664;SDS011;29263;48.172;11.484;2023-08-06T13:09:24;0.35;;;0.10;;
43664;SDS011;29263;48.172;11.484;2023-08-06T13:12:07;0.60;;;0.10;;
43664;SDS011;29263;48.172;11.484;2023-08-06T13:14:39;1.65;;;0.00;;
43664;SDS011;29263;48.172;11.484;2023-08-06T13:17:04;0.73;;;0.17;;
43664;SDS011;29263;48.172;11.484;2023-08-06T13:19:32;1.15;;;0.10;;
43664;SDS011;29263;48.172;11.484;2023-08-06T13:22:00;0.22;;;0.10;;
43664;SDS011;29263;48.172;11.484;2023-08-06T13:24:42;0.10;;;0.00;;
43664;SDS011;29263;48.172;11.484;2023-08-06T13:27:17;0.80;;;0.10;;
43664;SDS011;29263;48.172;11.484;2023-08-06T13:29:43;0.38;;;0.20;;
43664;SDS011;29263;48.172;11.484;2023-08-06T13:32:08;0.15;;;0.10;;
43664;SDS011;29263;48.172;11.484;2023-08-06T13:34:34;1.08;;;0.20;;
43664;SDS011;29263;48.172;11.484;2023-08-06T13:40:01;0.10;;;0.00;;
43664;SDS011;29263;48.172;11.484;2023-08-06T13:42:33;0.28;;;0.28;;
43664;SDS011;29263;48.172;11.484;2023-08-06T13:44:59;0.03;;;0.00;;
43664;SDS011;29263;48.172;11.484;2023-08-06T13:47:28;0.35;;;0.00;;
43664;SDS011;29263;48.172;11.484;2023-08-06T13:49:56;0.45;;;0.10;;
43664;SDS011;29263;48.172;11.484;2023-08-06T13:52:23;0.20;;;0.03;;
43664;SDS011;29263;48.172;11.484;2023-08-06T13:55:07;0.10;;;0.10;;
43664;SDS011;29263;48.172;11.484;2023-08-06T13:57:36;0.22;;;0.00;;
43664;SDS011;29263;48.172;11.484;2023-08-06T14:03:04;0.00;;;0.00;;
43664;SDS011;29263;48.172;11.484;2023-08-06T14:05:42;0.00;;;0.00;;
43664;SDS011;29263;48.172;11.484;2023-08-06T14:08:08;0.13;;;0.05;;
43664;SDS011;29263;48.172;11.484;2023-08-06T14:10:34;0.13;;;0.10;;
43664;SDS011;29263;48.172;11.484;2023-08-06T14:13:08;1.33;;;0.00;;
43664;SDS011;29263;48.172;11.484;2023-08-06T14:15:42;1.38;;;0.20;;
43664;SDS011;29263;48.172;11.484;2023-08-06T14:18:14;0.10;;;0.08;;
43664;SDS011;29263;48.172;11.484;2023-08-06T14:20:44;0.47;;;0.00;;
43664;SDS011;29263;48.172;11.484;2023-08-06T14:23:10;0.00;;;0.00;;
43664;SDS011;29263;48.172;11.484;2023-08-06T14:25:37;0.13;;;0.10;;
43664;SDS011;29263;48.172;11.484;2023-08-06T14:28:03;0.10;;;0.10;;
43664;SDS011;29263;48.172;11.484;2023-08-06T14:30:36;0.60;;;0.10;;
43664;SDS011;29263;48.172;11.484;2023-08-06T14:33:14;0.10;;;0.00;;
43664;SDS011;29263;48.172;11.484;2023-08-06T14:35:43;0.20;;;0.10;;
43664;SDS011;29263;48.172;11.484;2023-08-06T14:38:11;0.50;;;0.30;;
43664;SDS011;29263;48.172;11.484;2023-08-06T14:40:37;0.17;;;0.10;;
43664;SDS011;29263;48.172;11.484;2023-08-06T14:43:07;1.35;;;0.28;;
43664;SDS011;29263;48.172;11.484;2023-08-06T14:45:33;0.37;;;0.10;;
43664;SDS011;29263;48.172;11.484;2023-08-06T14:47:58;0.43;;;0.10;;
43664;SDS011;29263;48.172;11.484;2023-08-06T14:50:24;0.52;;;0.22;;
43664;SDS011;29263;48.172;11.484;2023-08-06T14:52:50;0.25;;;0.10;;
43664;SDS011;29263;48.172;11.484;2023-08-06T14:55:27;0.17;;;0.10;;
43664;SDS011;29263;48.172;11.484;2023-08-06T14:57:53;0.60;;;0.20;;
43664;SDS011;29263;48.172;11.484;2023-08-06T15:00:22;0.55;;;0.10;;
43664;SDS011;29263;48.172;11.484;2023-08-06T15:02:48;0.10;;;0.10;;
43664;SDS011;29263;48.172;11.484;2023-08-06T15:05:15;0.20;;;0.00;;
43664;SDS011;29263;48.172;11.484;2023-08-06T15:07:41;0.20;;;0.20;;
43664;SDS011;29263;48.172;11.484;2023-08-06T15:10:07;0.28;;;0.10;;
43664;SDS011;29263;48.172;11.484;2023-08-06T15:12:32;0.20;;;0.10;;
43664;SDS011;29263;48.172;11.484;2023-08-06T15:14:58;1.38;;;0.68;;
43664;SDS011;29263;48.172;11.484;2023-08-06T15:17:26;1.08;;;0.50;;
43664;SDS011;29263;48.172;11.484;2023-08-06T15:19:55;0.15;;;0.10;;
43664;SDS011;29263;48.172;11.484;2023-08-06T15:22:22;0.93;;;0.20;;
43664;SDS011;29263;48.172;11.484;2023-08-06T15:24:48;0.00;;;0.00;;